sensor_id;sensor_type;location;lat;lon;timestamp;temperature;humidity
4922;DHT22;16625;53.624;10.106;2023-04-01T00:00:54;9.70;99.90
4922;DHT22;16625;53.624;10.106;2023-04-01T00:03:18;9.80;99.90
4922;DHT22;16625;53.624;10.106;2023-04-01T00:06:04;9.80;99.90
4922;DHT22;16625;53.624;10.106;2023-04-01T00:09:30;9.80;99.90
4922;DHT22;16625;53.624;10.106;2023-04-01T00:12:05;9.70;99.90
4922;DHT22;16625;53.624;10.106;2023-04-01T00:14:57;9.80;99.90
4922;DHT22;16625;53.624;10.106;2023-04-01T00:17:28;9.80;99.90
4922;DHT22;16625;53.624;10.106;2023-04-01T00:20:17;9.60;99.90
4922;DHT22;16625;53.624;10.106;2023-04-01T00:22:57;9.60;99.90
4922;DHT22;16625;53.624;10.106;2023-04-01T00:25:59;9.90;99.90
4922;DHT22;16625;53.624;10.106;2023-04-01T00:28:52;9.90;99.90
4922;DHT22;16625;53.624;10.106;2023-04-01T00:31:33;9.50;99.90
4922;DHT22;16625;53.624;10.106;2023-04-01T00:34:13;9.90;99.90
4922;DHT22;16625;53.624;10.106;2023-04-01T00:37:17;9.70;99.90
4922;DHT22;16625;53.624;10.106;2023-04-01T00:40:28;9.90;99.90
4922;DHT22;16625;53.624;10.106;2023-04-01T00:43:14;9.70;99.90
4922;DHT22;16625;53.624;10.106;2023-04-01T00:46:32;9.80;99.90
4922;DHT22;16625;53.624;10.106;2023-04-01T00:49:28;9.70;99.90
4922;DHT22;16625;53.624;10.106;2023-04-01T00:58:21;9.60;99.90
4922;DHT22;16625;53.624;10.106;2023-04-01T01:01:40;9.80;99.90
4922;DHT22;16625;53.624;10.106;2023-04-01T01:04:30;9.60;99.90
4922;DHT22;16625;53.624;10.106;2023-04-01T01:07:37;9.60;99.90
4922;DHT22;16625;53.624;10.106;2023-04-01T01:13:43;9.50;99.90
4922;DHT22;16625;53.624;10.106;2023-04-01T01:16:45;9.50;99.90
4922;DHT22;16625;53.624;10.106;2023-04-01T01:19:57;9.50;99.90
4922;DHT22;16625;53.624;10.106;2023-04-01T01:25:58;9.50;99.90
4922;DHT22;16625;53.624;10.106;2023-04-01T01:29:01;9.50;99.90
4922;DHT22;16625;53.624;10.106;2023-04-01T01:32:23;9.50;99.90
4922;DHT22;16625;53.624;10.106;2023-04-01T01:35:25;9.40;99.90
4922;DHT22;16625;53.624;10.106;2023-04-01T01:41:26;9.40;99.90
4922;DHT22;16625;53.624;10.106;2023-04-01T01:44:20;9.40;99.90
4922;DHT22;16625;53.624;10.106;2023-04-01T01:47:05;9.40;99.90
4922;DHT22;16625;53.624;10.106;2023-04-01T01:49:52;9.50;99.90
4922;DHT22;16625;53.624;10.106;2023-04-01T01:52:41;9.60;99.90
4922;DHT22;16625;53.624;10.106;2023-04-01T01:55:26;9.30;99.90
4922;DHT22;16625;53.624;10.106;2023-04-01T01:58:19;9.40;99.90
4922;DHT22;16625;53.624;10.106;2023-04-01T02:01:06;9.30;99.90
4922;DHT22;16625;53.624;10.106;2023-04-01T02:05:07;9.50;99.90
4922;DHT22;16625;53.624;10.106;2023-04-01T02:07:38;9.10;99.90
4922;DHT22;16625;53.624;10.106;2023-04-01T02:13:27;9.30;99.90
4922;DHT22;16625;53.624;10.106;2023-04-01T02:16:15;9.30;99.90
4922;DHT22;16625;53.624;10.106;2023-04-01T02:22:20;9.30;99.90
4922;DHT22;16625;53.624;10.106;2023-04-01T02:25:16;9.50;99.90
4922;DHT22;16625;53.624;10.106;2023-04-01T02:28:01;9.30;99.90
4922;DHT22;16625;53.624;10.106;2023-04-01T02:32:29;9.30;99.90
4922;DHT22;16625;53.624;10.106;2023-04-01T02:34:10;9.30;99.90
4922;DHT22;16625;53.624;10.106;2023-04-01T02:36:45;9.30;99.90
4922;DHT22;16625;53.624;10.106;2023-04-01T02:39:54;9.20;99.90
4922;DHT22;16625;53.624;10.106;2023-04-01T02:42:36;9.20;99.90
4922;DHT22;16625;53.624;10.106;2023-04-01T02:45:23;9.30;99.90
4922;DHT22;16625;53.624;10.106;2023-04-01T02:48:13;9.20;99.90
4922;DHT22;16625;53.624;10.106;2023-04-01T02:51:15;9.20;99.90
4922;DHT22;16625;53.624;10.106;2023-04-01T02:57:10;9.20;99.90
4922;DHT22;16625;53.624;10.106;2023-04-01T03:00:06;9.20;99.90
4922;DHT22;16625;53.624;10.106;2023-04-01T03:02:47;9.20;99.90
4922;DHT22;16625;53.624;10.106;2023-04-01T03:05:30;9.20;99.90
4922;DHT22;16625;53.624;10.106;2023-04-01T03:08:02;9.40;99.90
4922;DHT22;16625;53.624;10.106;2023-04-01T03:10:33;9.30;99.90
4922;DHT22;16625;53.624;10.106;2023-04-01T03:13:06;9.40;99.90
4922;DHT22;16625;53.624;10.106;2023-04-01T03:15:39;9.10;99.90
4922;DHT22;16625;53.624;10.106;2023-04-01T03:18:11;9.20;99.90
4922;DHT22;16625;53.624;10.106;2023-04-01T03:20:50;9.20;99.90
4922;DHT22;16625;53.624;10.106;2023-04-01T03:23:22;9.20;99.90
4922;DHT22;16625;53.624;10.106;2023-04-01T03:25:51;9.20;99.90
4922;DHT22;16625;53.624;10.106;2023-04-01T03:28:18;9.70;99.90
4922;DHT22;16625;53.624;10.106;2023-04-01T03:30:58;9.30;99.90
4922;DHT22;16625;53.624;10.106;2023-04-01T03:33:27;9.40;99.90
4922;DHT22;16625;53.624;10.106;2023-04-01T03:35:56;9.20;99.90
4922;DHT22;16625;53.624;10.106;2023-04-01T03:38:47;9.20;99.90
4922;DHT22;16625;53.624;10.106;2023-04-01T03:41:21;9.20;99.90
4922;DHT22;16625;53.624;10.106;2023-04-01T03:43:56;9.10;99.90
4922;DHT22;16625;53.624;10.106;2023-04-01T03:46:33;9.10;99.90
4922;DHT22;16625;53.624;10.106;2023-04-01T03:49:08;9.20;99.90
4922;DHT22;16625;53.624;10.106;2023-04-01T03:51:43;9.20;99.90
4922;DHT22;16625;53.624;10.106;2023-04-01T03:54:11;9.80;99.90
4922;DHT22;16625;53.624;10.106;2023-04-01T03:56:44;9.20;99.90
4922;DHT22;16625;53.624;10.106;2023-04-01T03:59:13;9.20;99.90
4922;DHT22;16625;53.624;10.106;2023-04-01T04:01:46;9.20;99.90
4922;DHT22;16625;53.624;10.106;2023-04-01T04:05:05;9.30;99.90
4922;DHT22;16625;53.624;10.106;2023-04-01T04:07:28;9.20;99.90
4922;DHT22;16625;53.624;10.106;2023-04-01T04:10:20;9.20;99.90
4922;DHT22;16625;53.624;10.106;2023-04-01T04:12:52;9.20;99.90
4922;DHT22;16625;53.624;10.106;2023-04-01T04:15:22;9.20;99.90
4922;DHT22;16625;53.624;10.106;2023-04-01T04:17:53;9.20;99.90
4922;DHT22;16625;53.624;10.106;2023-04-01T04:20:29;9.20;99.90
4922;DHT22;16625;53.624;10.106;2023-04-01T04:23:01;9.20;99.90
4922;DHT22;16625;53.624;10.106;2023-04-01T04:25:38;9.30;99.90
4922;DHT22;16625;53.624;10.106;2023-04-01T04:28:12;9.10;99.90
4922;DHT22;16625;53.624;10.106;2023-04-01T04:30:48;9.20;99.90
4922;DHT22;16625;53.624;10.106;2023-04-01T04:33:21;9.20;99.90
4922;DHT22;16625;53.624;10.106;2023-04-01T04:36:00;9.20;99.90
4922;DHT22;16625;53.624;10.106;2023-04-01T04:38:45;9.00;99.90
4922;DHT22;16625;53.624;10.106;2023-04-01T04:41:16;9.10;99.90
4922;DHT22;16625;53.624;10.106;2023-04-01T04:43:55;9.20;99.90
4922;DHT22;16625;53.624;10.106;2023-04-01T04:46:35;9.20;99.90
4922;DHT22;16625;53.624;10.106;2023-04-01T04:49:09;9.40;99.90
4922;DHT22;16625;53.624;10.106;2023-04-01T04:51:41;9.20;99.90
4922;DHT22;16625;53.624;10.106;2023-04-01T04:54:10;9.20;99.90
4922;DHT22;16625;53.624;10.106;2023-04-01T04:56:38;9.20;99.90
4922;DHT22;16625;53.624;10.106;2023-04-01T04:59:09;9.10;99.90
4922;DHT22;16625;53.624;10.106;2023-04-01T05:01:51;9.60;99.90
4922;DHT22;16625;53.624;10.106;2023-04-01T05:04:25;9.30;99.90
4922;DHT22;16625;53.624;10.106;2023-04-01T05:06:57;9.00;99.90
4922;DHT22;16625;53.624;10.106;2023-04-01T05:09:25;9.00;99.90
4922;DHT22;16625;53.624;10.106;2023-04-01T05:12:25;8.80;99.90
4922;DHT22;16625;53.624;10.106;2023-04-01T05:15:09;8.90;99.90
4922;DHT22;16625;53.624;10.106;2023-04-01T05:17:59;8.50;99.90
4922;DHT22;16625;53.624;10.106;2023-04-01T05:20:31;8.40;99.90
4922;DHT22;16625;53.624;10.106;2023-04-01T05:23:06;8.40;99.90
4922;DHT22;16625;53.624;10.106;2023-04-01T05:25:50;8.20;99.90
4922;DHT22;16625;53.624;10.106;2023-04-01T05:28:44;8.10;99.90
4922;DHT22;16625;53.624;10.106;2023-04-01T05:31:51;8.00;99.90
4922;DHT22;16625;53.624;10.106;2023-04-01T05:37:40;7.90;99.90
4922;DHT22;16625;53.624;10.106;2023-04-01T05:40:41;7.80;99.90
4922;DHT22;16625;53.624;10.106;2023-04-01T05:43:35;7.60;99.90
4922;DHT22;16625;53.624;10.106;2023-04-01T05:46:22;7.90;99.90
4922;DHT22;16625;53.624;10.106;2023-04-01T05:51:52;7.50;99.90
4922;DHT22;16625;53.624;10.106;2023-04-01T05:57:38;7.40;99.90
4922;DHT22;16625;53.624;10.106;2023-04-01T06:00:17;7.30;99.90
4922;DHT22;16625;53.624;10.106;2023-04-01T06:06:37;7.20;99.90
4922;DHT22;16625;53.624;10.106;2023-04-01T06:09:14;7.30;99.90
4922;DHT22;16625;53.624;10.106;2023-04-01T06:13:52;7.10;99.90
4922;DHT22;16625;53.624;10.106;2023-04-01T06:16:04;7.10;99.90
4922;DHT22;16625;53.624;10.106;2023-04-01T06:19:04;7.30;99.90
4922;DHT22;16625;53.624;10.106;2023-04-01T06:22:25;7.10;99.90
4922;DHT22;16625;53.624;10.106;2023-04-01T06:25:38;7.00;99.90
4922;DHT22;16625;53.624;10.106;2023-04-01T06:28:43;6.80;99.90
4922;DHT22;16625;53.624;10.106;2023-04-01T06:37:39;7.00;99.90
4922;DHT22;16625;53.624;10.106;2023-04-01T06:40:39;7.00;99.90
4922;DHT22;16625;53.624;10.106;2023-04-01T06:44:25;7.30;99.90
4922;DHT22;16625;53.624;10.106;2023-04-01T06:46:48;7.40;99.90
4922;DHT22;16625;53.624;10.106;2023-04-01T07:05:20;7.00;99.90
4922;DHT22;16625;53.624;10.106;2023-04-01T07:10:19;7.20;99.90
4922;DHT22;16625;53.624;10.106;2023-04-01T07:14:48;7.00;99.90
4922;DHT22;16625;53.624;10.106;2023-04-01T07:18:10;7.10;99.90
4922;DHT22;16625;53.624;10.106;2023-04-01T07:21:03;7.00;99.90
4922;DHT22;16625;53.624;10.106;2023-04-01T07:23:47;7.00;99.90
4922;DHT22;16625;53.624;10.106;2023-04-01T07:26:32;7.10;99.90
4922;DHT22;16625;53.624;10.106;2023-04-01T07:32:49;7.10;99.90
4922;DHT22;16625;53.624;10.106;2023-04-01T07:36:03;7.30;99.90
4922;DHT22;16625;53.624;10.106;2023-04-01T07:42:30;7.20;99.90
4922;DHT22;16625;53.624;10.106;2023-04-01T07:45:07;7.20;99.90
4922;DHT22;16625;53.624;10.106;2023-04-01T07:47:45;7.20;99.90
4922;DHT22;16625;53.624;10.106;2023-04-01T07:50:22;6.90;99.90
4922;DHT22;16625;53.624;10.106;2023-04-01T07:53:00;7.30;99.90
4922;DHT22;16625;53.624;10.106;2023-04-01T07:55:35;7.40;99.90
4922;DHT22;16625;53.624;10.106;2023-04-01T07:58:09;7.50;99.90
4922;DHT22;16625;53.624;10.106;2023-04-01T08:00:48;7.50;99.90
4922;DHT22;16625;53.624;10.106;2023-04-01T08:03:31;8.60;99.90
4922;DHT22;16625;53.624;10.106;2023-04-01T08:06:03;7.30;99.90
4922;DHT22;16625;53.624;10.106;2023-04-01T08:08:42;7.50;99.90
4922;DHT22;16625;53.624;10.106;2023-04-01T08:11:20;7.60;99.90
4922;DHT22;16625;53.624;10.106;2023-04-01T08:13:56;7.50;99.90
4922;DHT22;16625;53.624;10.106;2023-04-01T08:16:29;7.50;99.90
4922;DHT22;16625;53.624;10.106;2023-04-01T08:19:05;7.50;99.90
4922;DHT22;16625;53.624;10.106;2023-04-01T08:21:38;7.80;99.90
4922;DHT22;16625;53.624;10.106;2023-04-01T08:24:16;7.80;99.90
4922;DHT22;16625;53.624;10.106;2023-04-01T08:26:46;7.60;99.90
4922;DHT22;16625;53.624;10.106;2023-04-01T08:29:18;7.50;99.90
4922;DHT22;16625;53.624;10.106;2023-04-01T08:31:49;7.50;99.90
4922;DHT22;16625;53.624;10.106;2023-04-01T08:34:21;7.10;99.90
4922;DHT22;16625;53.624;10.106;2023-04-01T08:36:52;7.50;99.90
4922;DHT22;16625;53.624;10.106;2023-04-01T08:39:28;7.30;99.90
4922;DHT22;16625;53.624;10.106;2023-04-01T08:42:22;7.30;99.90
4922;DHT22;16625;53.624;10.106;2023-04-01T08:45:15;7.40;99.90
4922;DHT22;16625;53.624;10.106;2023-04-01T08:47:56;7.40;99.90
4922;DHT22;16625;53.624;10.106;2023-04-01T08:51:01;7.40;99.90
4922;DHT22;16625;53.624;10.106;2023-04-01T08:53:48;7.70;99.90
4922;DHT22;16625;53.624;10.106;2023-04-01T08:56:21;7.60;99.90
4922;DHT22;16625;53.624;10.106;2023-04-01T08:59:26;8.20;99.90
4922;DHT22;16625;53.624;10.106;2023-04-01T09:02:13;7.60;99.90
4922;DHT22;16625;53.624;10.106;2023-04-01T09:07:53;7.70;99.90
4922;DHT22;16625;53.624;10.106;2023-04-01T09:13:41;7.70;99.90
4922;DHT22;16625;53.624;10.106;2023-04-01T09:16:35;7.80;99.90
4922;DHT22;16625;53.624;10.106;2023-04-01T09:19:17;7.90;99.90
4922;DHT22;16625;53.624;10.106;2023-04-01T09:22:20;8.00;99.90
4922;DHT22;16625;53.624;10.106;2023-04-01T09:25:01;8.20;99.90
4922;DHT22;16625;53.624;10.106;2023-04-01T09:27:37;8.20;99.90
4922;DHT22;16625;53.624;10.106;2023-04-01T09:30:43;8.30;99.90
4922;DHT22;16625;53.624;10.106;2023-04-01T09:33:59;8.20;17.00
4922;DHT22;16625;53.624;10.106;2023-04-01T09:36:44;8.20;1.00
4922;DHT22;16625;53.624;10.106;2023-04-01T09:39:30;8.30;59.60
4922;DHT22;16625;53.624;10.106;2023-04-01T09:44:57;7.90;70.50
4922;DHT22;16625;53.624;10.106;2023-04-01T09:47:42;8.50;99.90
4922;DHT22;16625;53.624;10.106;2023-04-01T09:50:24;8.00;70.50
4922;DHT22;16625;53.624;10.106;2023-04-01T09:53:07;7.80;99.90
4922;DHT22;16625;53.624;10.106;2023-04-01T09:59:15;7.90;99.90
4922;DHT22;16625;53.624;10.106;2023-04-01T10:05:41;8.00;96.90
4922;DHT22;16625;53.624;10.106;2023-04-01T10:11:48;8.10;1.00
4922;DHT22;16625;53.624;10.106;2023-04-01T10:14:44;8.00;1.00
4922;DHT22;16625;53.624;10.106;2023-04-01T10:17:39;7.90;1.00
4922;DHT22;16625;53.624;10.106;2023-04-01T10:20:47;8.00;7.40
4922;DHT22;16625;53.624;10.106;2023-04-01T10:23:32;7.90;1.00
4922;DHT22;16625;53.624;10.106;2023-04-01T10:26:24;7.90;1.00
4922;DHT22;16625;53.624;10.106;2023-04-01T10:29:16;7.70;12.40
4922;DHT22;16625;53.624;10.106;2023-04-01T10:32:30;7.90;21.80
4922;DHT22;16625;53.624;10.106;2023-04-01T10:44:27;8.30;1.00
4922;DHT22;16625;53.624;10.106;2023-04-01T10:47:32;8.30;1.00
4922;DHT22;16625;53.624;10.106;2023-04-01T10:50:25;8.40;99.90
4922;DHT22;16625;53.624;10.106;2023-04-01T10:53:32;8.50;1.00
4922;DHT22;16625;53.624;10.106;2023-04-01T10:56:32;8.50;1.00
4922;DHT22;16625;53.624;10.106;2023-04-01T11:05:39;8.70;1.00
4922;DHT22;16625;53.624;10.106;2023-04-01T11:08:41;8.70;1.00
4922;DHT22;16625;53.624;10.106;2023-04-01T11:14:43;8.50;99.90
4922;DHT22;16625;53.624;10.106;2023-04-01T11:20:42;8.50;99.90
4922;DHT22;16625;53.624;10.106;2023-04-01T11:23:49;8.40;92.20
4922;DHT22;16625;53.624;10.106;2023-04-01T11:26:32;8.20;99.90
4922;DHT22;16625;53.624;10.106;2023-04-01T11:32:12;8.70;1.00
4922;DHT22;16625;53.624;10.106;2023-04-01T11:34:51;9.10;1.00
4922;DHT22;16625;53.624;10.106;2023-04-01T11:37:32;9.40;1.00
4922;DHT22;16625;53.624;10.106;2023-04-01T11:40:11;8.10;99.90
4922;DHT22;16625;53.624;10.106;2023-04-01T11:42:46;8.20;1.00
4922;DHT22;16625;53.624;10.106;2023-04-01T11:45:22;8.10;1.00
4922;DHT22;16625;53.624;10.106;2023-04-01T11:48:04;8.20;1.50
4922;DHT22;16625;53.624;10.106;2023-04-01T11:50:45;8.30;89.70
4922;DHT22;16625;53.624;10.106;2023-04-01T11:53:23;8.20;1.00
4922;DHT22;16625;53.624;10.106;2023-04-01T11:56:02;8.30;1.00
4922;DHT22;16625;53.624;10.106;2023-04-01T11:58:49;8.30;65.00
4922;DHT22;16625;53.624;10.106;2023-04-01T12:01:28;7.80;99.90
4922;DHT22;16625;53.624;10.106;2023-04-01T12:04:40;7.80;1.00
4922;DHT22;16625;53.624;10.106;2023-04-01T12:07:18;7.80;1.00
4922;DHT22;16625;53.624;10.106;2023-04-01T12:09:52;8.10;99.90
4922;DHT22;16625;53.624;10.106;2023-04-01T12:12:29;7.70;99.90
4922;DHT22;16625;53.624;10.106;2023-04-01T12:15:05;7.60;1.00
4922;DHT22;16625;53.624;10.106;2023-04-01T12:17:45;7.60;57.40
4922;DHT22;16625;53.624;10.106;2023-04-01T12:20:29;7.60;99.90
4922;DHT22;16625;53.624;10.106;2023-04-01T12:23:09;7.50;99.90
4922;DHT22;16625;53.624;10.106;2023-04-01T12:26:00;7.70;99.90
4922;DHT22;16625;53.624;10.106;2023-04-01T12:28:41;7.50;1.00
4922;DHT22;16625;53.624;10.106;2023-04-01T12:31:26;7.40;1.00
4922;DHT22;16625;53.624;10.106;2023-04-01T12:34:24;7.20;40.70
4922;DHT22;16625;53.624;10.106;2023-04-01T12:37:05;7.10;1.00
4922;DHT22;16625;53.624;10.106;2023-04-01T12:39:50;7.60;39.80
4922;DHT22;16625;53.624;10.106;2023-04-01T12:42:32;7.40;99.90
4922;DHT22;16625;53.624;10.106;2023-04-01T12:45:31;7.50;1.00
4922;DHT22;16625;53.624;10.106;2023-04-01T12:48:23;7.30;99.90
4922;DHT22;16625;53.624;10.106;2023-04-01T12:51:08;7.30;1.00
4922;DHT22;16625;53.624;10.106;2023-04-01T12:54:02;7.40;1.00
4922;DHT22;16625;53.624;10.106;2023-04-01T12:56:41;7.40;1.00
4922;DHT22;16625;53.624;10.106;2023-04-01T12:59:32;7.40;1.00
4922;DHT22;16625;53.624;10.106;2023-04-01T13:02:03;7.50;7.90
4922;DHT22;16625;53.624;10.106;2023-04-01T13:05:09;7.50;99.90
4922;DHT22;16625;53.624;10.106;2023-04-01T13:07:50;7.50;99.90
4922;DHT22;16625;53.624;10.106;2023-04-01T13:10:50;8.30;99.90
4922;DHT22;16625;53.624;10.106;2023-04-01T13:13:56;7.40;1.00
4922;DHT22;16625;53.624;10.106;2023-04-01T13:16:30;7.30;49.10
4922;DHT22;16625;53.624;10.106;2023-04-01T13:19:03;7.20;46.90
4922;DHT22;16625;53.624;10.106;2023-04-01T13:21:39;7.20;99.90
4922;DHT22;16625;53.624;10.106;2023-04-01T13:24:20;7.30;99.90
4922;DHT22;16625;53.624;10.106;2023-04-01T13:26:57;7.60;1.00
4922;DHT22;16625;53.624;10.106;2023-04-01T13:29:30;7.40;27.50
4922;DHT22;16625;53.624;10.106;2023-04-01T13:32:18;7.70;1.00
4922;DHT22;16625;53.624;10.106;2023-04-01T13:34:55;7.30;99.90
4922;DHT22;16625;53.624;10.106;2023-04-01T13:37:40;7.50;1.00
4922;DHT22;16625;53.624;10.106;2023-04-01T13:43:12;6.80;1.00
4922;DHT22;16625;53.624;10.106;2023-04-01T13:45:55;6.90;99.90
4922;DHT22;16625;53.624;10.106;2023-04-01T13:48:39;7.20;99.90
4922;DHT22;16625;53.624;10.106;2023-04-01T13:51:22;6.90;99.90
4922;DHT22;16625;53.624;10.106;2023-04-01T13:54:00;7.00;99.90
4922;DHT22;16625;53.624;10.106;2023-04-01T13:56:36;7.10;99.90
4922;DHT22;16625;53.624;10.106;2023-04-01T13:59:27;7.20;1.00
4922;DHT22;16625;53.624;10.106;2023-04-01T14:05:39;7.20;99.90
4922;DHT22;16625;53.624;10.106;2023-04-01T14:08:23;7.00;1.00
4922;DHT22;16625;53.624;10.106;2023-04-01T14:11:00;7.00;1.00
4922;DHT22;16625;53.624;10.106;2023-04-01T14:13:37;7.00;1.00
4922;DHT22;16625;53.624;10.106;2023-04-01T14:16:28;6.90;99.90
4922;DHT22;16625;53.624;10.106;2023-04-01T14:19:08;7.20;99.90
4922;DHT22;16625;53.624;10.106;2023-04-01T14:21:41;6.70;99.90
4922;DHT22;16625;53.624;10.106;2023-04-01T14:24:23;6.80;99.90
4922;DHT22;16625;53.624;10.106;2023-04-01T14:27:31;6.80;99.90
4922;DHT22;16625;53.624;10.106;2023-04-01T14:30:32;6.80;99.90
4922;DHT22;16625;53.624;10.106;2023-04-01T14:33:18;6.80;99.90
4922;DHT22;16625;53.624;10.106;2023-04-01T14:35:58;7.10;99.90
4922;DHT22;16625;53.624;10.106;2023-04-01T14:38:39;6.80;1.00
4922;DHT22;16625;53.624;10.106;2023-04-01T14:41:21;6.70;1.00
4922;DHT22;16625;53.624;10.106;2023-04-01T14:50:07;6.40;99.90
4922;DHT22;16625;53.624;10.106;2023-04-01T14:52:39;6.30;99.90
4922;DHT22;16625;53.624;10.106;2023-04-01T14:55:21;6.70;99.90
4922;DHT22;16625;53.624;10.106;2023-04-01T14:58:10;6.30;1.00
4922;DHT22;16625;53.624;10.106;2023-04-01T15:00:48;6.20;1.00
4922;DHT22;16625;53.624;10.106;2023-04-01T15:03:23;6.40;67.20
4922;DHT22;16625;53.624;10.106;2023-04-01T15:06:10;6.20;99.90
4922;DHT22;16625;53.624;10.106;2023-04-01T15:08:44;6.10;99.90
4922;DHT22;16625;53.624;10.106;2023-04-01T15:11:25;6.10;1.00
4922;DHT22;16625;53.624;10.106;2023-04-01T15:14:26;6.10;1.00
4922;DHT22;16625;53.624;10.106;2023-04-01T15:17:13;6.00;1.00
4922;DHT22;16625;53.624;10.106;2023-04-01T15:19:57;6.00;99.90
4922;DHT22;16625;53.624;10.106;2023-04-01T15:22:51;5.90;99.90
4922;DHT22;16625;53.624;10.106;2023-04-01T15:25:42;5.90;1.00
4922;DHT22;16625;53.624;10.106;2023-04-01T15:28:20;5.90;99.90
4922;DHT22;16625;53.624;10.106;2023-04-01T15:30:56;6.00;99.90
4922;DHT22;16625;53.624;10.106;2023-04-01T15:33:39;5.80;99.90
4922;DHT22;16625;53.624;10.106;2023-04-01T15:36:20;5.80;99.90
4922;DHT22;16625;53.624;10.106;2023-04-01T15:38:55;6.00;1.00
4922;DHT22;16625;53.624;10.106;2023-04-01T15:41:38;5.80;1.00
4922;DHT22;16625;53.624;10.106;2023-04-01T15:47:31;5.70;16.80
4922;DHT22;16625;53.624;10.106;2023-04-01T15:53:02;5.80;99.90
4922;DHT22;16625;53.624;10.106;2023-04-01T15:55:39;5.70;32.50
4922;DHT22;16625;53.624;10.106;2023-04-01T15:58:33;5.70;99.90
4922;DHT22;16625;53.624;10.106;2023-04-01T16:01:12;5.60;1.00
4922;DHT22;16625;53.624;10.106;2023-04-01T16:03:46;5.60;1.00
4922;DHT22;16625;53.624;10.106;2023-04-01T16:12:16;5.50;46.50
4922;DHT22;16625;53.624;10.106;2023-04-01T16:14:54;5.50;99.90
4922;DHT22;16625;53.624;10.106;2023-04-01T16:17:44;5.50;99.90
4922;DHT22;16625;53.624;10.106;2023-04-01T16:20:19;5.60;1.00
4922;DHT22;16625;53.624;10.106;2023-04-01T16:22:54;5.90;1.00
4922;DHT22;16625;53.624;10.106;2023-04-01T16:25:31;5.40;1.00
4922;DHT22;16625;53.624;10.106;2023-04-01T16:28:22;5.90;99.90
4922;DHT22;16625;53.624;10.106;2023-04-01T16:30:57;5.60;99.90
4922;DHT22;16625;53.624;10.106;2023-04-01T16:33:35;5.20;99.90
4922;DHT22;16625;53.624;10.106;2023-04-01T16:36:10;5.20;1.00
4922;DHT22;16625;53.624;10.106;2023-04-01T16:38:43;5.70;1.00
4922;DHT22;16625;53.624;10.106;2023-04-01T16:41:19;5.10;1.00
4922;DHT22;16625;53.624;10.106;2023-04-01T16:43:57;5.10;99.90
4922;DHT22;16625;53.624;10.106;2023-04-01T16:46:38;5.10;99.90
4922;DHT22;16625;53.624;10.106;2023-04-01T16:49:28;5.00;99.90
4922;DHT22;16625;53.624;10.106;2023-04-01T16:52:12;5.00;99.90
4922;DHT22;16625;53.624;10.106;2023-04-01T16:54:45;4.70;88.80
4922;DHT22;16625;53.624;10.106;2023-04-01T16:57:21;4.90;1.00
4922;DHT22;16625;53.624;10.106;2023-04-01T17:00:09;4.90;99.90
4922;DHT22;16625;53.624;10.106;2023-04-01T17:02:49;4.80;99.90
4922;DHT22;16625;53.624;10.106;2023-04-01T17:05:21;4.90;99.90
4922;DHT22;16625;53.624;10.106;2023-04-01T17:08:09;4.90;99.90
4922;DHT22;16625;53.624;10.106;2023-04-01T17:10:51;4.90;99.90
4922;DHT22;16625;53.624;10.106;2023-04-01T17:13:40;4.90;1.00
4922;DHT22;16625;53.624;10.106;2023-04-01T17:16:33;5.00;99.90
4922;DHT22;16625;53.624;10.106;2023-04-01T17:19:12;5.00;99.90
4922;DHT22;16625;53.624;10.106;2023-04-01T17:21:57;4.90;99.40
4922;DHT22;16625;53.624;10.106;2023-04-01T17:24:40;4.90;99.90
4922;DHT22;16625;53.624;10.106;2023-04-01T17:27:22;4.90;20.60
4922;DHT22;16625;53.624;10.106;2023-04-01T17:30:15;4.90;57.10
4922;DHT22;16625;53.624;10.106;2023-04-01T17:35:43;4.90;1.00
4922;DHT22;16625;53.624;10.106;2023-04-01T17:38:24;4.80;1.00
4922;DHT22;16625;53.624;10.106;2023-04-01T17:41:02;4.80;1.00
4922;DHT22;16625;53.624;10.106;2023-04-01T17:43:38;4.80;21.40
4922;DHT22;16625;53.624;10.106;2023-04-01T17:46:27;4.60;1.00
4922;DHT22;16625;53.624;10.106;2023-04-01T17:49:10;4.80;1.00
4922;DHT22;16625;53.624;10.106;2023-04-01T17:51:48;4.80;99.90
4922;DHT22;16625;53.624;10.106;2023-04-01T17:54:25;4.80;64.30
4922;DHT22;16625;53.624;10.106;2023-04-01T17:57:13;4.70;71.60
4922;DHT22;16625;53.624;10.106;2023-04-01T17:59:55;4.70;84.00
4922;DHT22;16625;53.624;10.106;2023-04-01T18:02:30;5.10;99.90
4922;DHT22;16625;53.624;10.106;2023-04-01T18:05:23;5.50;99.90
4922;DHT22;16625;53.624;10.106;2023-04-01T18:08:17;4.70;99.90
4922;DHT22;16625;53.624;10.106;2023-04-01T18:10:57;4.70;99.90
4922;DHT22;16625;53.624;10.106;2023-04-01T18:13:58;4.60;99.90
4922;DHT22;16625;53.624;10.106;2023-04-01T18:16:51;4.60;99.90
4922;DHT22;16625;53.624;10.106;2023-04-01T18:19:30;4.60;1.00
4922;DHT22;16625;53.624;10.106;2023-04-01T18:22:15;4.50;1.00
4922;DHT22;16625;53.624;10.106;2023-04-01T18:24:56;4.50;99.90
4922;DHT22;16625;53.624;10.106;2023-04-01T18:27:31;4.50;1.00
4922;DHT22;16625;53.624;10.106;2023-04-01T18:30:07;4.50;1.00
4922;DHT22;16625;53.624;10.106;2023-04-01T18:32:42;4.20;1.00
4922;DHT22;16625;53.624;10.106;2023-04-01T18:35:19;4.40;99.90
4922;DHT22;16625;53.624;10.106;2023-04-01T18:37:54;4.30;1.00
4922;DHT22;16625;53.624;10.106;2023-04-01T18:40:27;4.20;1.00
4922;DHT22;16625;53.624;10.106;2023-04-01T18:43:14;4.70;1.00
4922;DHT22;16625;53.624;10.106;2023-04-01T18:45:46;4.10;1.00
4922;DHT22;16625;53.624;10.106;2023-04-01T18:48:42;4.50;99.90
4922;DHT22;16625;53.624;10.106;2023-04-01T18:51:14;4.10;1.00
4922;DHT22;16625;53.624;10.106;2023-04-01T18:53:54;4.60;1.00
4922;DHT22;16625;53.624;10.106;2023-04-01T18:56:27;4.10;1.00
4922;DHT22;16625;53.624;10.106;2023-04-01T18:59:02;4.80;1.00
4922;DHT22;16625;53.624;10.106;2023-04-01T19:01:37;4.10;1.00
4922;DHT22;16625;53.624;10.106;2023-04-01T19:04:18;4.10;99.90
4922;DHT22;16625;53.624;10.106;2023-04-01T19:06:48;4.40;99.90
4922;DHT22;16625;53.624;10.106;2023-04-01T19:09:25;4.40;99.90
4922;DHT22;16625;53.624;10.106;2023-04-01T19:15:08;4.00;99.90
4922;DHT22;16625;53.624;10.106;2023-04-01T19:17:48;4.00;11.40
4922;DHT22;16625;53.624;10.106;2023-04-01T19:20:24;3.80;1.00
4922;DHT22;16625;53.624;10.106;2023-04-01T19:23:18;3.90;1.00
4922;DHT22;16625;53.624;10.106;2023-04-01T19:25:55;4.20;99.90
4922;DHT22;16625;53.624;10.106;2023-04-01T19:28:33;3.90;99.90
4922;DHT22;16625;53.624;10.106;2023-04-01T19:31:11;4.10;1.00
4922;DHT22;16625;53.624;10.106;2023-04-01T19:33:51;3.90;1.00
4922;DHT22;16625;53.624;10.106;2023-04-01T19:36:26;3.90;99.90
4922;DHT22;16625;53.624;10.106;2023-04-01T19:39:00;4.00;99.90
4922;DHT22;16625;53.624;10.106;2023-04-01T19:41:44;3.60;99.90
4922;DHT22;16625;53.624;10.106;2023-04-01T19:44:26;3.50;99.90
4922;DHT22;16625;53.624;10.106;2023-04-01T19:47:08;3.40;99.90
4922;DHT22;16625;53.624;10.106;2023-04-01T19:49:55;3.40;99.90
4922;DHT22;16625;53.624;10.106;2023-04-01T19:52:36;3.30;99.90
4922;DHT22;16625;53.624;10.106;2023-04-01T19:55:15;3.20;99.90
4922;DHT22;16625;53.624;10.106;2023-04-01T19:57:55;3.10;99.90
4922;DHT22;16625;53.624;10.106;2023-04-01T20:00:36;3.10;99.90
4922;DHT22;16625;53.624;10.106;2023-04-01T20:03:14;3.20;99.90
4922;DHT22;16625;53.624;10.106;2023-04-01T20:05:50;3.00;99.90